Airfield :
LOGIN :

Register | Disclaimer

   EN    FR    IT 

 










Legend :    VFR   Marginal VFR   IFR   Intensive IFR   Very Intensive IFR
Visi :
Ceiling :
>= 8 km
>= 3000ft
5 to 8 km
1000 to 3000 ft
1500m to 5 km
500 to 1000 ft
800 to 1500m
200 to 500 ft
< 800m
< 200 ft
Symbols :   Thunderstorms  Fog  Heavy snow  Heavy precipitations  Wind > 20 kt
SIGMETs :     Misc.  Thunderstorms  Icing  Turbulence  Mountain Waves  Volcanic Ashes






- Airport Elevation : 147 ft
- IATA code : DUS


EDDL - Düsseldorf Int.

CURRENT METAR :
  • 061820Z 23010KT 9999 VCSH FEW025TCU 15/05 Q1001 NOSIG

EXPIRED METARs :
  • 061750Z 23011KT 9999 -SHRA FEW025 SCT048TCU 16/04 Q1001 NOSIG
  • 061720Z 23016KT 9999 -SHRA SCT048TCU 16/03 Q1001 BECMG 22011KT
  • 061650Z 24019KT CAVOK 18/03 Q1001 BECMG 22014KT
  • 061620Z 23019KT CAVOK 17/03 Q1001 NOSIG
  • 061550Z 23020KT CAVOK 17/03 Q1001 NOSIG

TAF TAF EDDL
Valid from the 06 at 18:00 until the 08 at 00:00 UTC


061700Z 0618/0724 24015G25KT 9999 FEW040
BECMG 0618/0621 18010KT
BECMG 0707/0709 24012KT
PROB30
TEMPO 0709/0715 26015G25KT
BECMG 0718/0720 24005KT



MET'MAP, your aeronautical weather chart ! - Copyright ORBIFLY December 2007 - Disclaimer

ORBIFLY MET'MAP TEAM :

Programming & Development : Alexandra Zaïnal
Concept & original design : Baudouin d'Aumeries
Assistance for programming : Marc-Olivier Méhu
Technical & hardware support : Manuel Goepfert

Contact : metmap@orbifly.com




SOURCES & CREDITS :

   NOAA